createdAt,value
2022-10-31T00:01:23.674Z,698.00
2022-10-31T00:03:50.543Z,696.27
2022-10-31T00:06:19.943Z,611.67
2022-10-31T00:08:58.073Z,685.92
2022-10-31T00:11:25.581Z,743.53
2022-10-31T00:13:52.528Z,655.80
2022-10-31T00:31:06.210Z,595.60
2022-10-31T00:33:35.574Z,626.63
2022-10-31T00:36:02.293Z,654.25
2022-10-31T00:38:28.958Z,617.17
2022-10-31T00:40:55.597Z,613.00
2022-10-31T00:43:22.173Z,560.63
2022-10-31T00:45:48.739Z,584.42
2022-10-31T00:51:10.594Z,436.50
2022-10-31T00:53:37.504Z,430.42
2022-10-31T00:56:04.881Z,423.58
2022-10-31T00:58:31.767Z,430.67
2022-10-31T01:00:58.639Z,419.70
2022-10-31T01:03:28.175Z,425.70
2022-10-31T01:06:04.751Z,426.80
2022-10-31T01:08:32.963Z,424.25
2022-10-31T01:11:12.709Z,414.93
2022-10-31T01:13:41.588Z,416.70
2022-10-31T01:16:11.396Z,427.70
2022-10-31T01:18:38.379Z,423.70
2022-10-31T01:21:09.324Z,419.48
2022-10-31T01:23:36.532Z,418.53
2022-10-31T01:26:11.971Z,431.70
2022-10-31T01:28:48.141Z,419.70
2022-10-31T01:31:16.069Z,428.42
2022-10-31T01:33:43.053Z,425.02
2022-10-31T01:36:17.743Z,422.08
2022-10-31T01:38:44.944Z,429.10
2022-10-31T01:41:13.293Z,421.45
2022-10-31T01:43:46.189Z,417.33
2022-10-31T01:46:13.511Z,416.97
2022-10-31T01:48:43.320Z,418.30
2022-10-31T01:51:12.757Z,442.25
2022-10-31T01:53:40.745Z,426.92
2022-10-31T01:56:08.657Z,437.67
2022-10-31T01:58:37.864Z,432.23
2022-10-31T02:01:07.970Z,410.20
2022-10-31T02:03:36.035Z,406.95
2022-10-31T02:06:05.736Z,414.35
2022-10-31T02:08:35.862Z,416.52
2022-10-31T02:11:02.557Z,427.80
2022-10-31T02:13:30.000Z,424.23
2022-10-31T02:15:59.731Z,426.27
2022-10-31T02:18:29.098Z,417.80
2022-10-31T02:21:03.378Z,415.10
2022-10-31T02:24:01.872Z,418.42
2022-10-31T02:26:52.127Z,423.33
2022-10-31T02:29:56.395Z,428.75
2022-10-31T02:32:33.836Z,426.50
2022-10-31T02:35:14.491Z,421.23
2022-10-31T02:37:59.219Z,411.43
2022-10-31T02:40:36.713Z,404.85
2022-10-31T02:43:49.576Z,402.35
2022-10-31T02:46:46.154Z,417.90
2022-10-31T02:49:24.198Z,403.77
2022-10-31T02:51:51.587Z,406.80
2022-10-31T02:54:20.891Z,400.77
2022-10-31T02:56:54.391Z,404.63
2022-10-31T02:59:22.726Z,396.80
2022-10-31T03:02:07.694Z,396.88
2022-10-31T03:04:58.431Z,402.23
2022-10-31T03:07:36.346Z,399.55
2022-10-31T03:10:14.262Z,400.52
2022-10-31T03:12:59.556Z,407.65
2022-10-31T03:15:37.298Z,403.00
2022-10-31T03:18:10.470Z,407.38
2022-10-31T03:20:49.007Z,400.63
2022-10-31T03:23:19.211Z,407.80
2022-10-31T03:25:51.989Z,410.33
2022-10-31T03:28:21.343Z,414.97
2022-10-31T03:30:50.527Z,415.63
2022-10-31T03:33:22.888Z,416.33
2022-10-31T03:35:53.617Z,410.65
2022-10-31T03:38:21.067Z,409.48
2022-10-31T03:40:49.478Z,405.13
2022-10-31T03:43:29.937Z,402.23
2022-10-31T03:45:57.376Z,400.60
2022-10-31T03:48:25.476Z,404.63
2022-10-31T03:51:11.801Z,402.35
2022-10-31T03:53:45.884Z,409.50
2022-10-31T03:56:28.943Z,402.25
2022-10-31T03:59:35.609Z,395.80
2022-10-31T04:02:08.942Z,395.50
2022-10-31T04:04:37.612Z,385.77
2022-10-31T04:07:07.545Z,387.57
2022-10-31T04:09:39.117Z,393.08
2022-10-31T04:12:09.814Z,390.85
2022-10-31T04:15:00.081Z,389.23
2022-10-31T04:17:30.947Z,393.30
2022-10-31T04:20:00.694Z,393.17
2022-10-31T04:22:28.838Z,389.08
2022-10-31T04:24:55.497Z,393.20
2022-10-31T04:27:22.051Z,389.38
2022-10-31T04:29:50.815Z,389.20
2022-10-31T04:32:18.730Z,386.80
2022-10-31T04:34:45.293Z,395.30
2022-10-31T04:37:12.138Z,385.50
2022-10-31T04:39:39.357Z,373.50
2022-10-31T04:42:24.608Z,383.23
2022-10-31T04:44:52.294Z,383.35
2022-10-31T04:47:19.290Z,383.02
2022-10-31T04:49:46.083Z,387.10
2022-10-31T04:52:13.614Z,386.05
2022-10-31T04:54:41.030Z,377.25
2022-10-31T04:57:48.481Z,374.88
2022-10-31T05:00:18.553Z,384.45
2022-10-31T05:02:50.523Z,380.70
2022-10-31T05:05:19.264Z,385.02
2022-10-31T05:07:47.511Z,379.58
2022-10-31T05:10:17.155Z,381.90
2022-10-31T05:12:50.793Z,369.60
2022-10-31T05:15:35.855Z,368.93
2022-10-31T05:18:37.604Z,364.27
2022-10-31T05:21:27.015Z,371.75
2022-10-31T05:23:58.448Z,373.77
2022-10-31T05:26:25.582Z,380.95
2022-10-31T05:28:53.447Z,369.00
2022-10-31T05:31:20.125Z,371.23
2022-10-31T05:33:48.344Z,370.92
2022-10-31T05:36:33.735Z,365.92
2022-10-31T05:39:10.407Z,366.80
2022-10-31T05:41:42.363Z,372.23
2022-10-31T05:44:15.080Z,364.42
2022-10-31T05:46:57.968Z,365.15
2022-10-31T05:49:59.783Z,360.83
2022-10-31T05:52:32.926Z,385.45
2022-10-31T05:55:07.395Z,372.10
2022-10-31T05:57:35.021Z,380.25
2022-10-31T06:00:02.127Z,377.63
2022-10-31T06:02:35.654Z,377.63
2022-10-31T06:05:25.618Z,374.45
2022-10-31T06:07:52.972Z,386.33
2022-10-31T06:10:21.809Z,388.60
2022-10-31T06:12:52.326Z,389.75
2022-10-31T06:15:29.532Z,378.10
2022-10-31T06:18:06.998Z,367.48
2022-10-31T06:20:37.155Z,370.08
2022-10-31T06:23:05.533Z,363.10
2022-10-31T06:25:34.263Z,371.35
2022-10-31T06:28:00.940Z,377.23
2022-10-31T06:30:36.836Z,371.85
2022-10-31T06:33:04.962Z,359.92
2022-10-31T06:35:33.950Z,383.80
2022-10-31T06:38:01.107Z,378.48
2022-10-31T06:40:35.566Z,385.50
2022-10-31T06:43:22.931Z,364.45
2022-10-31T06:45:53.502Z,387.67
2022-10-31T06:48:23.964Z,367.90
2022-10-31T06:51:15.497Z,368.02
2022-10-31T06:53:42.248Z,380.25
2022-10-31T06:56:11.414Z,374.45
2022-10-31T06:58:44.055Z,373.23
2022-10-31T07:01:11.943Z,361.40
2022-10-31T07:03:39.454Z,360.13
2022-10-31T07:06:06.190Z,358.70
2022-10-31T07:08:33.408Z,358.77
2022-10-31T07:11:00.049Z,372.75
2022-10-31T07:13:29.074Z,366.85
2022-10-31T07:16:07.664Z,358.08
2022-10-31T07:18:36.069Z,358.92
2022-10-31T07:21:03.081Z,356.55
2022-10-31T07:23:29.643Z,356.90
2022-10-31T07:26:16.341Z,357.50
2022-10-31T07:28:49.451Z,356.17
2022-10-31T07:31:20.141Z,345.00
2022-10-31T07:33:46.784Z,350.00
2022-10-31T07:36:25.420Z,357.02
2022-10-31T07:38:54.258Z,364.95
2022-10-31T07:41:22.311Z,367.52
2022-10-31T07:43:49.486Z,354.13
2022-10-31T07:46:16.191Z,357.70
2022-10-31T07:48:57.580Z,357.67
2022-10-31T07:51:53.201Z,360.40
2022-10-31T07:54:45.796Z,361.02
2022-10-31T07:57:12.432Z,350.55
2022-10-31T07:59:39.430Z,360.08
2022-10-31T08:02:09.347Z,360.25
2022-10-31T08:04:57.228Z,364.55
2022-10-31T08:07:30.050Z,367.83
2022-10-31T08:10:03.718Z,377.92
2022-10-31T08:12:31.796Z,378.40
2022-10-31T08:14:58.712Z,375.55
2022-10-31T08:17:25.895Z,374.08
2022-10-31T08:19:55.723Z,364.38
2022-10-31T08:22:28.317Z,377.15
2022-10-31T08:24:55.084Z,376.75
2022-10-31T08:27:22.140Z,374.73
2022-10-31T08:29:48.935Z,374.92
2022-10-31T08:32:15.652Z,364.48
2022-10-31T08:35:00.906Z,367.60
2022-10-31T08:37:46.099Z,366.10
2022-10-31T08:40:13.982Z,361.65
2022-10-31T08:42:40.772Z,368.50
2022-10-31T08:45:07.896Z,382.67
2022-10-31T08:47:35.864Z,373.90
2022-10-31T08:50:02.503Z,388.33
2022-10-31T08:52:58.777Z,385.63
2022-10-31T08:55:16.313Z,385.50
2022-10-31T08:58:05.103Z,386.83
2022-10-31T09:00:40.597Z,381.25
2022-10-31T09:03:34.391Z,375.25
2022-10-31T09:06:03.704Z,377.00
2022-10-31T09:08:32.088Z,388.77
2022-10-31T09:10:59.241Z,375.75
2022-10-31T09:13:48.911Z,372.73
2022-10-31T09:16:15.489Z,383.90
2022-10-31T09:18:42.094Z,392.70
2022-10-31T09:21:08.764Z,399.25
2022-10-31T09:23:35.420Z,411.45
2022-10-31T09:26:02.699Z,429.52
2022-10-31T09:28:52.164Z,431.80
2022-10-31T09:31:18.768Z,440.55
2022-10-31T09:33:48.118Z,464.67
2022-10-31T09:36:39.153Z,512.65
2022-10-31T09:39:12.918Z,494.73
2022-10-31T09:42:12.088Z,487.17
2022-10-31T09:48:28.792Z,470.75
2022-10-31T09:51:19.480Z,415.42
2022-10-31T09:54:50.258Z,401.63
2022-10-31T09:57:26.151Z,387.33
2022-10-31T09:59:54.338Z,342.08
2022-10-31T10:02:42.814Z,351.17
2022-10-31T10:05:27.002Z,350.20
2022-10-31T10:08:20.522Z,352.30
2022-10-31T10:11:43.370Z,362.08
2022-10-31T10:14:26.159Z,351.85
2022-10-31T10:17:10.945Z,357.20
2022-10-31T10:19:53.089Z,352.03
2022-10-31T10:22:34.752Z,349.20
2022-10-31T10:25:20.134Z,348.80
2022-10-31T10:27:46.659Z,345.55
2022-10-31T10:30:26.746Z,337.30
2022-10-31T10:32:59.960Z,336.92
2022-10-31T10:35:35.887Z,341.63
2022-10-31T10:38:13.827Z,343.67
2022-10-31T10:40:41.401Z,339.00
2022-10-31T10:43:35.721Z,347.58
2022-10-31T10:46:42.342Z,338.88
2022-10-31T10:49:19.238Z,338.63
2022-10-31T10:55:22.242Z,371.25
2022-10-31T10:58:05.558Z,358.75
2022-10-31T11:00:37.235Z,374.85
2022-10-31T11:03:06.009Z,366.23
2022-10-31T11:05:51.025Z,376.42
2022-10-31T11:08:37.141Z,390.83
2022-10-31T11:11:03.632Z,386.53
2022-10-31T11:13:31.536Z,364.88
2022-10-31T11:16:02.530Z,364.98
2022-10-31T11:18:32.854Z,363.55
2022-10-31T11:21:01.597Z,377.15
2022-10-31T11:23:29.753Z,363.48
2022-10-31T11:25:56.263Z,357.52
2022-10-31T11:28:23.402Z,368.98
2022-10-31T11:30:54.208Z,361.63
2022-10-31T11:33:30.193Z,366.80
2022-10-31T11:35:58.433Z,372.50
2022-10-31T11:38:36.086Z,370.13
2022-10-31T11:41:11.676Z,355.05
2022-10-31T11:43:39.290Z,355.77
2022-10-31T11:46:16.589Z,363.80
2022-10-31T11:48:52.674Z,376.60
2022-10-31T11:51:29.891Z,373.65
2022-10-31T11:54:03.463Z,375.13
2022-10-31T11:56:43.438Z,372.87
2022-10-31T11:59:21.860Z,373.53
2022-10-31T12:01:53.599Z,380.20
2022-10-31T12:04:35.879Z,370.48
2022-10-31T12:07:02.660Z,362.88
2022-10-31T12:09:31.591Z,366.08
2022-10-31T12:12:10.023Z,363.85
2022-10-31T12:15:04.776Z,365.40
2022-10-31T12:17:42.730Z,360.00
2022-10-31T12:20:26.678Z,368.42
2022-10-31T12:23:20.688Z,376.20
2022-10-31T12:25:52.719Z,357.30
2022-10-31T12:28:21.976Z,363.88
2022-10-31T12:31:00.668Z,393.02
2022-10-31T12:33:51.435Z,371.65
2022-10-31T12:36:25.654Z,369.90
2022-10-31T12:39:12.163Z,355.60
2022-10-31T12:42:02.720Z,371.17
2022-10-31T12:45:10.072Z,365.48
2022-10-31T12:47:41.955Z,390.75
2022-10-31T12:50:36.462Z,396.23
2022-10-31T12:53:11.235Z,369.60
2022-10-31T12:55:59.153Z,376.10
2022-10-31T12:58:32.288Z,364.80
2022-10-31T13:01:12.769Z,382.58
2022-10-31T13:03:52.158Z,375.53
2022-10-31T13:06:39.496Z,375.83
2022-10-31T13:09:19.280Z,378.20
2022-10-31T13:11:52.988Z,373.50
2022-10-31T13:14:35.520Z,359.20
2022-10-31T13:17:03.118Z,365.27
2022-10-31T13:19:35.451Z,367.10
2022-10-31T13:22:13.703Z,363.80
2022-10-31T13:24:51.697Z,363.52
2022-10-31T13:27:35.955Z,363.50
2022-10-31T13:30:04.247Z,359.38
2022-10-31T13:33:21.755Z,345.00
2022-10-31T13:36:00.459Z,343.67
2022-10-31T13:38:36.162Z,357.75
2022-10-31T13:41:13.148Z,356.08
2022-10-31T13:44:21.156Z,355.67
2022-10-31T13:46:48.044Z,336.75
2022-10-31T13:49:41.084Z,347.83
2022-10-31T13:52:10.368Z,346.83
2022-10-31T13:54:41.433Z,350.57
2022-10-31T13:57:16.914Z,350.90
2022-10-31T13:59:51.443Z,365.35
2022-10-31T14:02:26.265Z,374.80
2022-10-31T14:04:58.821Z,376.33
2022-10-31T14:07:26.804Z,361.60
2022-10-31T14:10:07.305Z,366.92
2022-10-31T14:12:40.490Z,367.98
2022-10-31T14:15:22.539Z,358.47
2022-10-31T14:17:52.544Z,353.48
2022-10-31T14:20:19.053Z,345.80
2022-10-31T14:22:45.681Z,358.03
2022-10-31T14:25:33.229Z,362.40
2022-10-31T14:28:02.314Z,373.25
2022-10-31T14:30:30.524Z,375.95
2022-10-31T14:33:03.453Z,364.13
2022-10-31T14:35:54.668Z,380.38
2022-10-31T14:38:30.204Z,387.27
2022-10-31T14:41:20.515Z,402.27
2022-10-31T14:44:11.748Z,392.98
2022-10-31T14:46:57.152Z,391.37
2022-10-31T14:49:38.963Z,385.63
2022-10-31T14:52:09.636Z,379.15
2022-10-31T14:54:41.425Z,371.02
2022-10-31T14:57:28.350Z,376.00
2022-10-31T15:00:03.873Z,391.05
2022-10-31T15:02:47.939Z,383.27
2022-10-31T15:05:15.435Z,381.77
2022-10-31T15:07:59.039Z,380.73
2022-10-31T15:10:30.829Z,381.25
2022-10-31T15:13:10.368Z,378.65
2022-10-31T15:15:38.015Z,395.67
2022-10-31T15:18:06.396Z,380.42
2022-10-31T15:20:43.273Z,379.83
2022-10-31T15:23:12.656Z,380.80
2022-10-31T15:25:39.410Z,372.05
2022-10-31T15:28:22.235Z,349.58
2022-10-31T15:30:57.311Z,349.48
2022-10-31T15:33:33.664Z,355.85
2022-10-31T15:36:04.717Z,363.63
2022-10-31T15:38:31.675Z,349.00
2022-10-31T15:41:05.900Z,353.35
2022-10-31T15:43:45.700Z,349.23
2022-10-31T15:46:12.611Z,379.10
2022-10-31T15:48:41.441Z,361.40
2022-10-31T15:51:08.088Z,361.03
2022-10-31T15:53:54.905Z,368.88
2022-10-31T15:56:25.065Z,353.83
2022-10-31T15:58:54.071Z,373.97
2022-10-31T16:01:32.966Z,362.58
2022-10-31T16:04:01.477Z,354.38
2022-10-31T16:06:35.151Z,355.15
2022-10-31T16:09:02.260Z,342.80
2022-10-31T16:11:36.567Z,356.58
2022-10-31T16:14:18.457Z,352.23
2022-10-31T16:16:53.393Z,361.20
2022-10-31T16:19:35.593Z,342.02
2022-10-31T16:25:07.183Z,340.73
2022-10-31T16:27:35.563Z,331.45
2022-10-31T16:30:05.296Z,338.33
2022-10-31T16:32:38.848Z,331.55
2022-10-31T16:35:11.565Z,323.63
2022-10-31T16:37:39.212Z,334.02
2022-10-31T16:40:06.339Z,339.88
2022-10-31T16:42:33.166Z,347.52
2022-10-31T16:45:00.666Z,341.02
2022-10-31T16:47:28.582Z,331.98
2022-10-31T16:49:55.442Z,328.65
2022-10-31T16:52:22.171Z,327.10
2022-10-31T16:54:48.693Z,332.77
2022-10-31T16:57:24.866Z,338.92
2022-10-31T16:59:54.779Z,363.30
2022-10-31T17:02:21.804Z,359.80
2022-10-31T17:04:50.853Z,353.63
2022-10-31T17:07:20.480Z,360.75
2022-10-31T17:09:47.014Z,368.30
2022-10-31T17:12:20.226Z,376.37
2022-10-31T17:14:51.808Z,363.02
2022-10-31T17:17:18.669Z,363.02
2022-10-31T17:19:45.299Z,364.27
2022-10-31T17:22:14.190Z,358.70
2022-10-31T17:24:40.959Z,372.40
2022-10-31T17:27:07.701Z,357.63
2022-10-31T17:29:35.340Z,349.90
2022-10-31T17:32:03.827Z,356.63
2022-10-31T17:34:30.610Z,348.43
2022-10-31T17:36:57.218Z,341.25
2022-10-31T17:39:23.797Z,350.63
2022-10-31T17:41:51.799Z,344.80
2022-10-31T17:44:18.847Z,340.58
2022-10-31T17:46:45.503Z,343.83
2022-10-31T17:49:12.750Z,353.83
2022-10-31T17:51:39.274Z,351.00
2022-10-31T17:54:10.108Z,339.50
2022-10-31T17:56:36.716Z,337.55
2022-10-31T17:59:03.427Z,340.75
2022-10-31T18:01:30.204Z,328.30
2022-10-31T18:03:57.525Z,328.27
2022-10-31T18:06:24.131Z,340.55
2022-10-31T18:08:50.784Z,334.40
2022-10-31T18:11:21.125Z,346.30
2022-10-31T18:13:47.841Z,334.38
2022-10-31T18:16:17.333Z,347.85
2022-10-31T18:18:43.965Z,341.10
2022-10-31T18:21:10.666Z,327.77
2022-10-31T18:23:37.308Z,350.73
2022-10-31T18:26:04.039Z,341.92
2022-10-31T18:28:30.591Z,349.02
2022-10-31T18:31:00.437Z,343.45
2022-10-31T18:33:27.476Z,352.30
2022-10-31T18:35:54.015Z,352.43
2022-10-31T18:38:20.619Z,352.75
2022-10-31T18:40:47.289Z,351.67
2022-10-31T18:43:15.551Z,359.80
2022-10-31T18:45:47.154Z,361.83
2022-10-31T18:48:17.363Z,366.20
2022-10-31T18:50:44.587Z,363.13
2022-10-31T18:53:11.301Z,355.98
2022-10-31T18:55:45.699Z,339.10
2022-10-31T18:58:16.206Z,348.55
2022-10-31T19:00:43.229Z,356.52
2022-10-31T19:03:09.815Z,345.92
2022-10-31T19:05:36.359Z,362.70
2022-10-31T19:08:03.396Z,365.45
2022-10-31T19:10:30.196Z,365.47
2022-10-31T19:12:56.900Z,363.33
2022-10-31T19:15:23.461Z,365.55
2022-10-31T19:17:50.019Z,364.20
2022-10-31T19:20:16.749Z,365.00
2022-10-31T19:22:43.557Z,358.80
2022-10-31T19:25:10.976Z,366.70
2022-10-31T19:27:38.267Z,353.27
2022-10-31T19:30:06.364Z,361.67
2022-10-31T19:32:33.028Z,362.67
2022-10-31T19:34:59.665Z,344.30
2022-10-31T19:37:26.315Z,361.17
2022-10-31T19:39:52.905Z,354.02
2022-10-31T19:42:19.510Z,378.77
2022-10-31T19:44:46.102Z,357.27
2022-10-31T19:47:12.720Z,362.08
2022-10-31T19:49:39.319Z,365.77
2022-10-31T19:52:05.848Z,361.85
2022-10-31T19:54:32.508Z,363.70
2022-10-31T19:56:59.165Z,357.60
2022-10-31T19:59:26.269Z,358.88
2022-10-31T20:01:53.070Z,364.02
2022-10-31T20:04:19.699Z,351.90
2022-10-31T20:06:46.400Z,354.45
2022-10-31T20:09:14.318Z,363.08
2022-10-31T20:11:43.144Z,363.10
2022-10-31T20:14:13.727Z,353.50
2022-10-31T20:16:41.005Z,356.40
2022-10-31T20:19:08.041Z,332.83
2022-10-31T20:21:39.778Z,343.00
2022-10-31T20:24:08.907Z,342.13
2022-10-31T20:26:36.045Z,347.48
2022-10-31T20:29:03.694Z,348.03
2022-10-31T20:31:33.833Z,365.15
2022-10-31T20:34:00.434Z,351.63
2022-10-31T20:36:29.460Z,342.73
2022-10-31T20:38:56.499Z,350.58
2022-10-31T20:41:23.216Z,352.53
2022-10-31T20:43:49.776Z,349.45
2022-10-31T20:46:18.960Z,352.35
2022-10-31T20:48:46.424Z,350.40
2022-10-31T20:51:18.602Z,355.17
2022-10-31T20:53:45.663Z,355.15
2022-10-31T20:56:14.732Z,354.67
2022-10-31T21:11:23.864Z,354.17
2022-10-31T21:13:51.312Z,357.83
2022-10-31T21:16:35.672Z,359.90
2022-10-31T21:19:03.944Z,360.73
2022-10-31T21:21:33.588Z,362.10
2022-10-31T21:24:06.527Z,366.40
2022-10-31T21:26:36.360Z,368.40
2022-10-31T21:29:04.880Z,366.05
2022-10-31T21:31:31.625Z,366.05
2022-10-31T21:33:58.435Z,372.00
2022-10-31T21:36:26.174Z,358.30
2022-10-31T21:38:54.162Z,359.15
2022-10-31T21:41:21.821Z,359.02
2022-10-31T21:43:50.272Z,367.48
2022-10-31T21:46:18.225Z,362.37
2022-10-31T21:48:45.531Z,365.90
2022-10-31T21:51:29.726Z,367.50
2022-10-31T21:54:16.773Z,363.07
2022-10-31T21:56:44.146Z,371.98
2022-10-31T21:59:11.560Z,373.70
2022-10-31T22:01:38.388Z,366.85
2022-10-31T22:04:05.894Z,368.13
2022-10-31T22:06:32.821Z,374.17
2022-10-31T22:09:00.904Z,371.20
2022-10-31T22:11:28.485Z,370.30
2022-10-31T22:13:55.922Z,371.20
2022-10-31T22:16:24.069Z,372.85
2022-10-31T22:18:55.541Z,376.95
2022-10-31T22:21:24.207Z,366.42
2022-10-31T22:24:01.949Z,369.50
2022-10-31T22:26:32.188Z,369.65
2022-10-31T22:29:02.319Z,374.45
2022-10-31T22:31:30.959Z,363.15
2022-10-31T22:33:57.977Z,400.52
2022-10-31T22:36:26.896Z,373.95
2022-10-31T22:38:53.860Z,387.23
2022-10-31T22:41:32.047Z,371.30
2022-10-31T22:43:59.516Z,365.85
2022-10-31T22:46:28.774Z,383.33
2022-10-31T22:48:58.554Z,406.00
2022-10-31T22:51:30.348Z,447.33
2022-10-31T22:53:57.151Z,380.55
2022-10-31T22:56:26.669Z,384.70
2022-10-31T22:58:53.964Z,501.70
2022-10-31T23:01:23.928Z,385.85
2022-10-31T23:03:51.290Z,488.95
2022-10-31T23:06:20.401Z,389.33
2022-10-31T23:08:48.446Z,548.28
2022-10-31T23:11:25.063Z,550.03
2022-10-31T23:14:08.844Z,402.08
2022-10-31T23:16:52.952Z,412.98
2022-10-31T23:19:22.030Z,427.90
2022-10-31T23:21:57.307Z,385.27
2022-10-31T23:24:37.490Z,449.20
2022-10-31T23:27:14.823Z,424.30
2022-10-31T23:29:41.560Z,381.27
2022-10-31T23:32:14.331Z,431.55
2022-10-31T23:34:40.990Z,388.88
2022-10-31T23:39:35.221Z,387.92
2022-10-31T23:42:02.142Z,389.35
2022-10-31T23:44:28.906Z,383.25
2022-10-31T23:46:55.514Z,384.08
2022-10-31T23:49:22.144Z,391.33
2022-10-31T23:51:48.685Z,381.15
2022-10-31T23:54:15.516Z,381.15
2022-10-31T23:56:42.988Z,387.90
2022-10-31T23:59:09.707Z,389.15
